createdAt,value
2022-10-12T00:00:25.965Z,6.93
2022-10-12T00:02:52.985Z,6.40
2022-10-12T00:05:22.362Z,6.75
2022-10-12T00:07:49.415Z,6.88
2022-10-12T00:10:18.523Z,7.10
2022-10-12T00:12:45.829Z,6.50
2022-10-12T00:15:12.916Z,5.65
2022-10-12T00:17:40.642Z,5.78
2022-10-12T00:20:08.211Z,5.55
2022-10-12T00:22:35.391Z,5.63
2022-10-12T00:25:02.392Z,5.13
2022-10-12T00:27:32.495Z,5.53
2022-10-12T00:30:02.254Z,5.40
2022-10-12T00:32:32.312Z,5.60
2022-10-12T00:35:08.237Z,6.05
2022-10-12T00:37:35.529Z,5.55
2022-10-12T00:40:02.872Z,5.60
2022-10-12T00:42:29.884Z,5.57
2022-10-12T00:44:56.892Z,5.57
2022-10-12T00:47:28.674Z,5.60
2022-10-12T00:49:57.940Z,5.30
2022-10-12T00:52:28.675Z,5.75
2022-10-12T00:54:56.175Z,5.07
2022-10-12T00:57:25.336Z,5.30
2022-10-12T00:59:54.753Z,5.38
2022-10-12T01:02:22.571Z,5.30
2022-10-12T01:04:49.750Z,5.32
2022-10-12T01:07:16.893Z,5.55
2022-10-12T01:09:44.064Z,5.38
2022-10-12T01:12:11.478Z,5.25
2022-10-12T01:14:40.166Z,5.40
2022-10-12T01:17:25.771Z,5.20
2022-10-12T01:20:11.748Z,5.50
2022-10-12T01:22:43.911Z,5.30
2022-10-12T01:25:13.716Z,5.00
2022-10-12T01:27:47.533Z,5.20
2022-10-12T01:30:19.093Z,4.90
2022-10-12T01:32:49.127Z,5.40
2022-10-12T01:35:22.014Z,5.28
2022-10-12T01:38:06.024Z,5.90
2022-10-12T01:40:44.144Z,5.15
2022-10-12T01:43:11.141Z,5.55
2022-10-12T01:45:38.151Z,5.60
2022-10-12T01:48:05.488Z,5.30
2022-10-12T01:50:36.676Z,5.10
2022-10-12T01:53:27.404Z,5.47
2022-10-12T01:56:19.090Z,5.25
2022-10-12T01:58:57.857Z,5.70
2022-10-12T02:02:03.216Z,5.57
2022-10-12T02:04:50.543Z,5.40
2022-10-12T02:07:25.805Z,6.13
2022-10-12T02:09:55.023Z,5.40
2022-10-12T02:12:24.238Z,5.93
2022-10-12T02:14:54.638Z,5.18
2022-10-12T02:17:23.130Z,5.68
2022-10-12T02:19:56.049Z,5.40
2022-10-12T02:22:25.022Z,5.68
2022-10-12T02:24:53.101Z,5.60
2022-10-12T02:27:21.879Z,5.68
2022-10-12T02:29:49.417Z,5.38
2022-10-12T02:32:25.092Z,5.30
2022-10-12T02:35:03.383Z,5.40
2022-10-12T02:37:39.536Z,5.93
2022-10-12T02:40:18.882Z,5.33
2022-10-12T02:43:10.313Z,5.53
2022-10-12T02:45:39.493Z,5.60
2022-10-12T02:48:07.204Z,5.78
2022-10-12T02:50:35.024Z,5.60
2022-10-12T02:53:03.023Z,5.35
2022-10-12T02:55:30.651Z,5.60
2022-10-12T02:57:57.710Z,5.83
2022-10-12T03:00:24.741Z,5.80
2022-10-12T03:02:51.814Z,5.85
2022-10-12T03:05:18.831Z,5.60
2022-10-12T03:07:45.879Z,5.85
2022-10-12T03:10:12.903Z,5.80
2022-10-12T03:12:42.934Z,5.67
2022-10-12T03:15:15.738Z,5.30
2022-10-12T03:17:42.814Z,5.97
2022-10-12T03:20:10.075Z,6.32
2022-10-12T03:22:39.822Z,5.90
2022-10-12T03:25:09.285Z,5.50
2022-10-12T03:27:36.691Z,6.30
2022-10-12T03:30:04.577Z,5.65
2022-10-12T03:32:36.951Z,5.85
2022-10-12T03:35:04.561Z,5.70
2022-10-12T03:37:31.604Z,5.78
2022-10-12T03:39:58.602Z,6.10
2022-10-12T03:42:25.664Z,5.77
2022-10-12T03:44:52.733Z,5.78
2022-10-12T03:47:19.751Z,5.70
2022-10-12T03:49:46.857Z,6.27
2022-10-12T03:52:13.993Z,6.57
2022-10-12T03:54:44.103Z,5.85
2022-10-12T03:57:11.157Z,6.28
2022-10-12T03:59:38.170Z,6.95
2022-10-12T04:02:05.172Z,6.57
2022-10-12T04:04:32.256Z,6.27
2022-10-12T04:07:02.102Z,6.13
2022-10-12T04:09:29.133Z,6.20
2022-10-12T04:11:59.162Z,6.32
2022-10-12T04:14:26.196Z,5.95
2022-10-12T04:16:56.012Z,6.28
2022-10-12T04:19:23.127Z,5.80
2022-10-12T04:21:50.199Z,6.13
2022-10-12T04:24:17.244Z,6.13
2022-10-12T04:26:44.295Z,6.00
2022-10-12T04:29:13.263Z,5.95
2022-10-12T04:31:40.592Z,6.40
2022-10-12T04:34:07.602Z,6.80
2022-10-12T04:36:34.627Z,6.22
2022-10-12T04:39:01.797Z,6.07
2022-10-12T04:41:29.077Z,5.90
2022-10-12T04:43:56.173Z,6.32
2022-10-12T04:46:23.275Z,5.88
2022-10-12T04:48:50.316Z,6.43
2022-10-12T04:51:17.371Z,6.07
2022-10-12T04:53:44.361Z,6.30
2022-10-12T04:56:11.377Z,5.85
2022-10-12T04:58:38.451Z,5.60
2022-10-12T05:01:05.853Z,6.32
2022-10-12T05:03:32.928Z,5.93
2022-10-12T05:06:02.912Z,6.60
2022-10-12T05:08:29.939Z,6.07
2022-10-12T05:10:59.151Z,6.20
2022-10-12T05:13:26.877Z,5.88
2022-10-12T05:15:53.948Z,5.80
2022-10-12T05:18:31.282Z,6.45
2022-10-12T05:21:00.591Z,6.40
2022-10-12T05:23:27.636Z,7.28
2022-10-12T05:26:01.623Z,7.20
2022-10-12T05:28:28.785Z,6.65
2022-10-12T05:30:55.837Z,6.90
2022-10-12T05:33:22.987Z,7.35
2022-10-12T05:35:54.701Z,7.45
2022-10-12T05:38:23.330Z,7.30
2022-10-12T05:41:02.388Z,7.07
2022-10-12T05:43:29.678Z,6.85
2022-10-12T05:45:56.809Z,7.00
2022-10-12T05:48:23.849Z,7.43
2022-10-12T05:50:54.392Z,7.53
2022-10-12T05:53:21.939Z,7.28
2022-10-12T05:55:56.224Z,7.18
2022-10-12T05:58:24.081Z,7.60
2022-10-12T06:00:59.735Z,7.53
2022-10-12T06:03:35.049Z,7.70
2022-10-12T06:06:02.424Z,8.50
2022-10-12T06:08:30.222Z,8.83
2022-10-12T06:10:57.261Z,9.40
2022-10-12T06:13:24.262Z,8.90
2022-10-12T06:15:51.643Z,8.60
2022-10-12T06:18:19.113Z,8.55
2022-10-12T06:20:47.169Z,9.45
2022-10-12T06:23:14.268Z,7.53
2022-10-12T06:25:41.444Z,7.88
2022-10-12T06:28:08.468Z,7.50
2022-10-12T06:30:37.559Z,7.53
2022-10-12T06:33:04.699Z,7.60
2022-10-12T06:35:31.979Z,8.07
2022-10-12T06:37:58.974Z,8.43
2022-10-12T06:40:27.277Z,8.38
2022-10-12T06:42:58.427Z,8.77
2022-10-12T06:45:25.724Z,7.90
2022-10-12T06:47:53.074Z,8.57
2022-10-12T06:50:21.269Z,8.48
2022-10-12T06:52:48.329Z,8.35
2022-10-12T06:57:56.887Z,8.50
2022-10-12T07:00:23.944Z,9.07
2022-10-12T07:02:51.495Z,8.70
2022-10-12T07:05:21.443Z,9.65
2022-10-12T07:07:48.584Z,9.45
2022-10-12T07:10:15.642Z,9.90
2022-10-12T07:12:42.671Z,9.55
2022-10-12T07:15:09.937Z,10.38
2022-10-12T07:17:37.263Z,10.30
2022-10-12T07:20:04.660Z,10.63
2022-10-12T07:22:31.898Z,10.00
2022-10-12T07:24:58.903Z,10.60
2022-10-12T07:27:28.706Z,10.30
2022-10-12T07:29:58.766Z,10.35
2022-10-12T07:32:25.819Z,10.10
2022-10-12T07:34:54.042Z,10.30
2022-10-12T07:37:21.103Z,11.00
2022-10-12T07:39:49.057Z,11.20
2022-10-12T07:42:19.310Z,11.23
2022-10-12T07:44:46.746Z,11.13
2022-10-12T07:47:16.283Z,11.67
2022-10-12T07:49:43.279Z,11.38
2022-10-12T07:52:10.294Z,11.70
2022-10-12T07:54:37.328Z,11.98
2022-10-12T07:57:05.929Z,12.30
2022-10-12T07:59:32.979Z,12.30
2022-10-12T08:02:00.175Z,12.98
2022-10-12T08:04:27.253Z,13.23
2022-10-12T08:06:54.262Z,13.13
2022-10-12T08:09:21.503Z,12.97
2022-10-12T08:11:51.477Z,13.50
2022-10-12T08:14:18.570Z,15.57
2022-10-12T08:16:46.087Z,14.80
2022-10-12T08:19:13.638Z,16.23
2022-10-12T08:21:42.488Z,16.33
2022-10-12T08:24:10.193Z,19.15
2022-10-12T08:26:37.363Z,18.55
2022-10-12T08:29:05.138Z,17.60
2022-10-12T08:31:32.482Z,17.83
2022-10-12T08:33:59.547Z,17.13
2022-10-12T08:36:26.776Z,17.70
2022-10-12T08:38:55.106Z,18.75
2022-10-12T08:41:26.991Z,18.70
2022-10-12T08:44:23.411Z,18.65
2022-10-12T08:46:50.677Z,19.42
2022-10-12T08:49:19.363Z,19.73
2022-10-12T08:51:47.797Z,19.45
2022-10-12T08:54:16.002Z,18.83
2022-10-12T08:56:43.873Z,18.35
2022-10-12T08:59:16.593Z,18.90
2022-10-12T09:01:52.887Z,18.55
2022-10-12T09:04:20.070Z,17.83
2022-10-12T09:06:50.313Z,17.45
2022-10-12T09:09:37.985Z,17.48
2022-10-12T09:12:17.356Z,16.70
2022-10-12T09:14:45.919Z,16.77
2022-10-12T09:17:23.697Z,16.60
2022-10-12T09:19:54.735Z,16.52
2022-10-12T09:22:21.762Z,16.17
2022-10-12T09:24:50.840Z,14.48
2022-10-12T09:27:20.633Z,14.23
2022-10-12T09:29:51.791Z,14.52
2022-10-12T09:32:21.622Z,13.90
2022-10-12T09:34:49.225Z,13.68
2022-10-12T09:37:19.975Z,13.45
2022-10-12T09:39:47.234Z,12.65
2022-10-12T09:42:20.103Z,12.73
2022-10-12T09:44:48.491Z,12.38
2022-10-12T09:47:24.421Z,11.95
2022-10-12T09:49:52.340Z,11.18
2022-10-12T09:52:23.488Z,11.30
2022-10-12T09:55:03.564Z,12.32
2022-10-12T09:57:42.816Z,11.90
2022-10-12T10:00:38.933Z,11.77
2022-10-12T10:03:08.316Z,11.90
2022-10-12T10:05:39.208Z,11.20
2022-10-12T10:08:12.065Z,10.75
2022-10-12T10:10:48.099Z,10.32
2022-10-12T10:13:18.707Z,9.82
2022-10-12T10:16:03.775Z,9.37
2022-10-12T10:18:34.880Z,10.07
2022-10-12T10:21:03.523Z,9.05
2022-10-12T10:23:53.991Z,9.27
2022-10-12T10:26:22.600Z,8.60
2022-10-12T10:28:50.489Z,9.30
2022-10-12T10:31:22.790Z,8.88
2022-10-12T10:34:10.358Z,9.10
2022-10-12T10:36:56.661Z,9.20
2022-10-12T10:39:26.416Z,8.75
2022-10-12T10:41:58.128Z,8.75
2022-10-12T10:44:34.736Z,8.55
2022-10-12T10:47:04.040Z,8.10
2022-10-12T10:49:43.312Z,8.55
2022-10-12T10:52:32.480Z,9.20
2022-10-12T10:55:30.561Z,9.60
2022-10-12T10:58:03.575Z,9.20
2022-10-12T11:00:40.480Z,8.73
2022-10-12T11:03:40.327Z,8.73
2022-10-12T11:06:07.503Z,8.10
2022-10-12T11:08:35.288Z,7.88
2022-10-12T11:11:10.057Z,8.25
2022-10-12T11:13:40.556Z,7.50
2022-10-12T11:16:07.712Z,7.83
2022-10-12T11:18:37.572Z,7.72
2022-10-12T11:21:08.349Z,7.97
2022-10-12T11:23:47.600Z,7.78
2022-10-12T11:26:14.581Z,6.97
2022-10-12T11:28:41.894Z,6.53
2022-10-12T11:31:13.619Z,6.68
2022-10-12T11:33:42.477Z,6.70
2022-10-12T11:36:14.605Z,6.60
2022-10-12T11:38:55.672Z,6.80
2022-10-12T11:41:36.019Z,6.65
2022-10-12T11:44:03.416Z,6.68
2022-10-12T11:46:42.472Z,6.22
2022-10-12T11:49:17.880Z,5.90
2022-10-12T11:51:47.612Z,6.00
2022-10-12T11:54:14.843Z,5.20
2022-10-12T11:56:43.361Z,5.18
2022-10-12T11:59:26.497Z,4.65
2022-10-12T12:02:02.201Z,5.10
2022-10-12T12:04:47.761Z,4.63
2022-10-12T12:07:33.945Z,5.15
2022-10-12T12:10:01.255Z,4.75
2022-10-12T12:12:29.673Z,4.85
2022-10-12T12:15:01.639Z,4.57
2022-10-12T12:17:32.149Z,4.30
2022-10-12T12:20:00.722Z,4.43
2022-10-12T12:22:48.705Z,3.90
2022-10-12T12:25:17.837Z,4.35
2022-10-12T12:28:16.745Z,4.70
2022-10-12T12:30:43.820Z,4.30
2022-10-12T12:33:17.779Z,4.10
2022-10-12T12:35:56.141Z,4.40
2022-10-12T12:38:25.232Z,4.20
2022-10-12T12:41:03.205Z,4.32
2022-10-12T12:43:35.047Z,4.32
2022-10-12T12:46:03.822Z,3.65
2022-10-12T12:48:40.179Z,4.30
2022-10-12T12:51:11.296Z,3.90
2022-10-12T12:53:58.658Z,3.80
2022-10-12T12:56:44.612Z,3.78
2022-10-12T12:59:30.460Z,3.92
2022-10-12T13:02:25.687Z,3.70
2022-10-12T13:05:15.359Z,3.73
2022-10-12T13:07:49.364Z,4.25
2022-10-12T13:10:22.726Z,4.40
2022-10-12T13:13:03.176Z,4.18
2022-10-12T13:15:41.906Z,4.22
2022-10-12T13:18:45.381Z,4.30
2022-10-12T13:21:14.034Z,3.88
2022-10-12T13:23:41.043Z,4.40
2022-10-12T13:26:11.843Z,4.25
2022-10-12T13:28:43.239Z,4.07
2022-10-12T13:31:17.181Z,4.13
2022-10-12T13:33:57.027Z,4.20
2022-10-12T13:36:35.509Z,4.15
2022-10-12T13:39:15.062Z,4.30
2022-10-12T13:41:42.220Z,4.50
2022-10-12T13:44:19.749Z,3.67
2022-10-12T13:46:46.771Z,4.10
2022-10-12T13:49:15.973Z,4.78
2022-10-12T13:51:43.817Z,4.30
2022-10-12T13:54:18.241Z,4.38
2022-10-12T13:56:46.117Z,4.43
2022-10-12T13:59:18.649Z,4.30
2022-10-12T14:01:50.139Z,4.22
2022-10-12T14:04:22.138Z,4.07
2022-10-12T14:06:57.622Z,4.40
2022-10-12T14:09:25.404Z,4.20
2022-10-12T14:11:53.820Z,3.80
2022-10-12T14:14:35.193Z,3.80
2022-10-12T14:17:05.212Z,3.60
2022-10-12T14:19:41.277Z,3.80
2022-10-12T14:22:08.660Z,3.60
2022-10-12T14:24:36.725Z,3.53
2022-10-12T14:27:05.386Z,3.72
2022-10-12T14:29:45.493Z,3.95
2022-10-12T14:32:12.480Z,3.70
2022-10-12T14:34:47.762Z,3.90
2022-10-12T14:37:17.587Z,3.60
2022-10-12T14:39:48.655Z,3.75
2022-10-12T14:42:21.538Z,3.95
2022-10-12T14:44:49.113Z,4.15
2022-10-12T14:47:24.275Z,3.95
2022-10-12T14:49:55.413Z,3.80
2022-10-12T14:52:43.391Z,3.90
2022-10-12T14:55:32.250Z,3.90
2022-10-12T14:58:00.636Z,3.97
2022-10-12T15:00:40.657Z,4.20
2022-10-12T15:03:07.764Z,4.75
2022-10-12T15:05:35.284Z,5.18
2022-10-12T15:08:07.354Z,4.93
2022-10-12T15:10:34.546Z,4.90
2022-10-12T15:13:04.321Z,5.07
2022-10-12T15:15:33.579Z,4.57
2022-10-12T15:18:00.979Z,5.20
2022-10-12T15:20:29.919Z,5.40
2022-10-12T15:22:57.582Z,5.20
2022-10-12T15:25:40.337Z,5.57
2022-10-12T15:28:07.512Z,5.35
2022-10-12T15:30:47.315Z,6.27
2022-10-12T15:33:23.888Z,5.88
2022-10-12T15:35:51.109Z,5.20
2022-10-12T15:38:18.200Z,5.45
2022-10-12T15:40:46.152Z,5.43
2022-10-12T15:43:13.771Z,5.05
2022-10-12T15:45:41.434Z,5.20
2022-10-12T15:48:09.452Z,5.35
2022-10-12T15:50:49.710Z,5.47
2022-10-12T15:53:23.879Z,5.30
2022-10-12T15:55:54.613Z,5.65
2022-10-12T15:58:22.080Z,5.45
2022-10-12T16:00:55.394Z,5.60
2022-10-12T16:03:25.906Z,5.43
2022-10-12T16:05:56.224Z,5.32
2022-10-12T16:08:23.266Z,5.70
2022-10-12T16:10:50.671Z,5.22
2022-10-12T16:13:17.880Z,5.40
2022-10-12T16:15:45.183Z,6.13
2022-10-12T16:18:15.223Z,5.35
2022-10-12T16:20:42.898Z,5.70
2022-10-12T16:23:14.930Z,5.15
2022-10-12T16:25:45.065Z,5.38
2022-10-12T16:28:12.444Z,5.82
2022-10-12T16:30:40.713Z,5.72
2022-10-12T16:33:07.963Z,5.28
2022-10-12T16:35:35.030Z,5.28
2022-10-12T16:38:18.251Z,5.38
2022-10-12T16:40:45.324Z,5.83
2022-10-12T16:43:12.656Z,7.00
2022-10-12T16:45:39.707Z,8.32
2022-10-12T16:48:06.846Z,7.30
2022-10-12T16:50:33.945Z,5.93
2022-10-12T16:53:01.006Z,5.70
2022-10-12T16:55:28.041Z,5.97
2022-10-12T16:57:55.072Z,5.97
2022-10-12T17:00:22.135Z,5.82
2022-10-12T17:02:50.495Z,5.90
2022-10-12T17:05:18.237Z,6.03
2022-10-12T17:07:48.955Z,5.97
2022-10-12T17:10:16.180Z,6.70
2022-10-12T17:12:43.336Z,7.50
2022-10-12T17:15:10.950Z,7.90
2022-10-12T17:17:41.085Z,7.53
2022-10-12T17:20:08.425Z,7.83
2022-10-12T17:22:35.586Z,8.43
2022-10-12T17:25:02.631Z,8.10
2022-10-12T17:27:32.200Z,8.63
2022-10-12T17:30:02.233Z,8.20
2022-10-12T17:32:31.605Z,9.05
2022-10-12T17:35:00.607Z,8.05
2022-10-12T17:37:27.810Z,9.65
2022-10-12T17:39:54.822Z,9.85
2022-10-12T17:42:22.962Z,9.38
2022-10-12T17:44:52.654Z,8.97
2022-10-12T17:47:22.556Z,8.90
2022-10-12T17:49:49.563Z,9.05
2022-10-12T17:52:17.096Z,8.77
2022-10-12T17:54:51.595Z,9.02
2022-10-12T17:57:24.881Z,10.13
2022-10-12T17:59:51.936Z,9.70
2022-10-12T18:02:22.402Z,10.20
2022-10-12T18:04:49.485Z,9.82
2022-10-12T18:07:16.832Z,10.03
2022-10-12T18:09:44.088Z,10.27
2022-10-12T18:12:14.949Z,10.00
2022-10-12T18:14:45.507Z,9.50
2022-10-12T18:17:12.579Z,8.35
2022-10-12T18:19:39.590Z,8.30
2022-10-12T18:22:06.647Z,9.80
2022-10-12T18:24:34.018Z,10.45
2022-10-12T18:27:01.080Z,10.68
2022-10-12T18:29:28.134Z,10.33
2022-10-12T18:31:55.166Z,10.57
2022-10-12T18:34:22.178Z,11.00
2022-10-12T18:36:49.231Z,10.97
2022-10-12T18:39:16.627Z,9.82
2022-10-12T18:41:55.782Z,11.20
2022-10-12T18:44:23.027Z,12.15
2022-10-12T18:46:50.391Z,12.02
2022-10-12T18:49:17.518Z,11.50
2022-10-12T18:51:47.375Z,11.60
2022-10-12T18:54:17.013Z,10.63
2022-10-12T18:56:44.948Z,10.50
2022-10-12T18:59:12.821Z,9.95
2022-10-12T19:01:41.370Z,10.45
2022-10-12T19:04:08.684Z,9.87
2022-10-12T19:06:42.659Z,9.90
2022-10-12T19:09:13.894Z,9.90
2022-10-12T19:11:43.199Z,10.90
2022-10-12T19:14:16.006Z,12.98
2022-10-12T19:16:43.627Z,11.82
2022-10-12T19:19:19.721Z,12.40
2022-10-12T19:21:48.130Z,12.33
2022-10-12T19:24:15.727Z,11.68
2022-10-12T19:26:43.064Z,12.10
2022-10-12T19:29:10.098Z,11.63
2022-10-12T19:31:38.532Z,12.07
2022-10-12T19:34:09.543Z,12.10
2022-10-12T19:36:36.707Z,11.48
2022-10-12T19:39:10.972Z,12.50
2022-10-12T19:41:38.355Z,11.53
2022-10-12T19:44:05.935Z,11.30
2022-10-12T19:46:33.132Z,11.85
2022-10-12T19:49:00.529Z,11.80
2022-10-12T19:51:34.853Z,11.38
2022-10-12T19:54:04.111Z,11.90
2022-10-12T19:56:31.613Z,11.93
2022-10-12T19:59:01.123Z,10.60
2022-10-12T20:01:29.302Z,11.13
2022-10-12T20:04:05.223Z,12.23
2022-10-12T20:06:32.728Z,12.93
2022-10-12T20:09:01.994Z,12.57
2022-10-12T20:11:35.593Z,13.73
2022-10-12T20:14:02.725Z,14.38
2022-10-12T20:16:35.798Z,13.43
2022-10-12T20:19:08.318Z,12.98
2022-10-12T20:21:38.255Z,13.32
2022-10-12T20:24:18.492Z,11.80
2022-10-12T20:27:02.087Z,12.75
2022-10-12T20:29:29.508Z,11.80
2022-10-12T20:31:56.602Z,10.23
2022-10-12T20:34:23.699Z,10.45
2022-10-12T20:36:50.802Z,9.88
2022-10-12T20:39:24.086Z,10.13
2022-10-12T20:41:53.789Z,9.70
2022-10-12T20:44:20.834Z,10.18
2022-10-12T20:46:52.208Z,9.95
2022-10-12T20:49:19.596Z,10.07
2022-10-12T20:51:46.674Z,10.02
2022-10-12T20:54:18.938Z,9.77
2022-10-12T20:56:50.484Z,9.40
2022-10-12T20:59:17.576Z,9.38
2022-10-12T21:01:45.462Z,9.80
2022-10-12T21:04:12.547Z,9.38
2022-10-12T21:06:41.214Z,9.80
2022-10-12T21:09:08.325Z,9.60
2022-10-12T21:11:35.363Z,9.88
2022-10-12T21:14:03.958Z,10.00
2022-10-12T21:16:31.696Z,10.02
2022-10-12T21:18:58.759Z,10.35
2022-10-12T21:21:25.860Z,9.95
2022-10-12T21:23:59.748Z,10.52
2022-10-12T21:26:27.681Z,10.40
2022-10-12T21:28:57.321Z,9.93
2022-10-12T21:31:28.165Z,10.82
2022-10-12T21:34:03.584Z,10.33
2022-10-12T21:36:31.509Z,10.47
2022-10-12T21:38:58.745Z,10.20
2022-10-12T21:41:29.795Z,11.02
2022-10-12T21:43:57.792Z,11.07
2022-10-12T21:46:26.364Z,11.27
2022-10-12T21:48:56.632Z,11.13
2022-10-12T21:51:24.615Z,11.88
2022-10-12T21:53:51.823Z,12.18
2022-10-12T21:56:21.838Z,11.40
2022-10-12T21:58:49.350Z,12.10
2022-10-12T22:01:17.937Z,11.57
2022-10-12T22:03:45.628Z,12.05
2022-10-12T22:06:14.285Z,11.35
2022-10-12T22:08:44.483Z,11.30
2022-10-12T22:11:12.554Z,10.50
2022-10-12T22:13:42.397Z,10.65
2022-10-12T22:16:11.189Z,9.82
2022-10-12T22:18:38.501Z,10.20
2022-10-12T22:21:06.635Z,10.30
2022-10-12T22:23:34.355Z,10.33
2022-10-12T22:26:02.234Z,10.93
2022-10-12T22:28:29.755Z,10.85
2022-10-12T22:31:13.300Z,10.20
2022-10-12T22:33:40.576Z,10.60
2022-10-12T22:36:08.246Z,10.83
2022-10-12T22:38:36.974Z,11.00
2022-10-12T22:41:03.953Z,10.43
2022-10-12T22:43:31.168Z,10.57
2022-10-12T22:45:58.691Z,10.50
2022-10-12T22:48:25.806Z,10.55
2022-10-12T22:50:53.489Z,10.93
2022-10-12T22:53:30.789Z,10.75
2022-10-12T22:56:02.362Z,10.98
2022-10-12T22:58:29.791Z,10.88
2022-10-12T23:01:07.276Z,10.60
2022-10-12T23:03:34.439Z,11.35
2022-10-12T23:06:01.533Z,10.45
2022-10-12T23:08:28.671Z,10.77
2022-10-12T23:10:56.039Z,11.23
2022-10-12T23:13:25.371Z,10.52
2022-10-12T23:15:52.406Z,11.15
2022-10-12T23:18:19.633Z,10.57
2022-10-12T23:20:46.658Z,10.73
2022-10-12T23:23:13.727Z,10.30
2022-10-12T23:25:40.724Z,11.05
2022-10-12T23:28:08.943Z,10.30
2022-10-12T23:30:37.694Z,10.50
2022-10-12T23:33:05.135Z,11.32
2022-10-12T23:35:32.222Z,10.80
2022-10-12T23:38:02.372Z,11.13
2022-10-12T23:40:41.666Z,10.52
2022-10-12T23:43:08.723Z,10.63
2022-10-12T23:45:38.480Z,11.05
2022-10-12T23:48:05.569Z,10.77
2022-10-12T23:50:32.575Z,10.40
2022-10-12T23:53:01.102Z,10.90
2022-10-12T23:55:29.923Z,11.15
2022-10-12T23:57:56.954Z,11.45
